| time (UTC) | temp C | wind direction | speed KPH | gust KPH | rain 1hr cm | rain 24hr cm | rain mn cm | humidity % | barometer mb |
| 20260510045005 | 18 | 78 | 12.9 | 27.4 | 0.46 | 0.48 | 0.48 | 82 | 1012.3 |
| 20260510044505 | 18 | 87 | 14.5 | 27.4 | 0.46 | 0.48 | 0.48 | 81 | 1011.6 |
| 20260510044005 | 18 | 78 | 9.7 | 24.1 | 0.43 | 0.46 | 0.46 | 80 | 1011.1 |
| 20260510043505 | 18 | 52 | 8.0 | 19.3 | 0.43 | 0.46 | 0.46 | 78 | 1012.3 |
| 20260510043005 | 19 | 48 | 12.9 | 25.7 | 0.43 | 0.46 | 0.46 | 77 | 1012.8 |
| 20260510042505 | 20 | 41 | 14.5 | 25.7 | 0.41 | 0.43 | 0.43 | 76 | 1013.0 |
| 20260510042026 | 20 | 27 | 16.1 | 25.7 | 0.36 | 0.38 | 0.41 | 73 | 1013.4 |
| 20260510041526 | 21 | 350 | 17.7 | 25.7 | 0.30 | 0.33 | 0.33 | 71 | 1013.9 |
| 20260510041005 | 21 | 328 | 16.1 | 27.4 | 0.10 | 0.13 | 0.13 | 67 | 1014.7 |
| 20260510040526 | 22 | 321 | 16.1 | 29.0 | 0.05 | 0.08 | 0.08 | 64 | 1014.4 |
| 20260510040026 | 22 | 309 | 17.7 | 37.0 | 0.03 | 0.05 | 0.05 | 63 | 1013.5 |
| 20260510035505 | 23 | 313 | 12.9 | 37.0 | 0.00 | 0.03 | 0.03 | 59 | 1013.8 |
| 20260510035005 | 23 | 355 | 9.7 | 19.3 | 0.00 | 0.03 | 0.03 | 57 | 1012.6 |
| 20260510034505 | 23 | 27 | 8.0 | 19.3 | 0.00 | 0.03 | 0.03 | 56 | 1011.9 |
| 20260510034026 | 23 | 58 | 4.8 | 16.1 | 0.00 | 0.03 | 0.03 | 54 | 1010.9 |
| 20260510033505 | 23 | 88 | 8.0 | 20.9 | 0.00 | 0.03 | 0.03 | 53 | 1010.3 |
| 20260510033005 | 23 | 99 | 12.9 | 25.7 | 0.00 | 0.03 | 0.03 | 53 | 1009.6 |
| 20260510032505 | 23 | 102 | 14.5 | 27.4 | 0.00 | 0.03 | 0.03 | 53 | 1008.8 |
| 20260510032005 | 23 | 106 | 14.5 | 27.4 | 0.00 | 0.03 | 0.03 | 53 | 1008.4 |
| 20260510031505 | 23 | 107 | 12.9 | 22.5 | 0.00 | 0.03 | 0.03 | 53 | 1008.3 |
| 20260510031005 | 23 | 106 | 12.9 | 22.5 | 0.00 | 0.03 | 0.03 | 53 | 1008.2 |
| 20260510030505 | 24 | 108 | 14.5 | 22.5 | 0.00 | 0.03 | 0.03 | 53 | 1008.0 |
| 20260510030005 | 24 | 110 | 12.9 | 32.2 | 0.00 | 0.03 | 0.03 | 53 | 1008.0 |
| 20260510025505 | 24 | 113 | 12.9 | 32.2 | 0.00 | 0.03 | 0.03 | 53 | 1008.2 |
| 20260510025005 | 24 | 115 | 11.3 | 20.9 | 0.00 | 0.03 | 0.03 | 53 | 1008.4 |
| 20260510024505 | 24 | 117 | 9.7 | 20.9 | 0.00 | 0.03 | 0.03 | 52 | 1008.6 |
| 20260510024005 | 24 | 116 | 9.7 | 19.3 | 0.00 | 0.03 | 0.03 | 52 | 1008.6 |
| 20260510023505 | 24 | 115 | 9.7 | 19.3 | 0.00 | 0.03 | 0.03 | 52 | 1008.5 |
| 20260510023005 | 24 | 118 | 8.0 | 16.1 | 0.00 | 0.03 | 0.03 | 52 | 1008.5 |
| 20260510022505 | 24 | 117 | 6.4 | 16.1 | 0.00 | 0.03 | 0.03 | 51 | 1008.3 |
| 20260510022005 | 24 | 119 | 6.4 | 16.1 | 0.00 | 0.03 | 0.03 | 51 | 1008.4 |
| 20260510021505 | 25 | 120 | 6.4 | 16.1 | 0.00 | 0.03 | 0.03 | 51 | 1008.4 |
| 20260510021005 | 25 | 119 | 6.4 | 14.5 | 0.00 | 0.03 | 0.03 | 50 | 1008.0 |
| 20260510020505 | 25 | 119 | 4.8 | 16.1 | 0.00 | 0.03 | 0.03 | 50 | 1007.9 |
| 20260510020005 | 25 | 120 | 4.8 | 16.1 | 0.00 | 0.03 | 0.03 | 49 | 1007.7 |
| 20260510015526 | 25 | 127 | 4.8 | 14.5 | 0.00 | 0.03 | 0.03 | 49 | 1007.3 |
| 20260510015005 | 25 | 139 | 4.8 | 14.5 | 0.00 | 0.03 | 0.03 | 49 | 1006.9 |
| 20260510014505 | 25 | 147 | 4.8 | 12.9 | 0.00 | 0.03 | 0.03 | 48 | 1006.9 |
| 20260510014005 | 25 | 152 | 3.2 | 12.9 | 0.00 | 0.03 | 0.03 | 47 | 1006.8 |
| 20260510013526 | 25 | 149 | 3.2 | 9.7 | 0.00 | 0.03 | 0.03 | 47 | 1006.7 |
| 20260510013005 | 25 | 127 | 3.2 | 11.3 | 0.00 | 0.03 | 0.03 | 46 | 1006.8 |
| 20260510012505 | 25 | 124 | 3.2 | 11.3 | 0.00 | 0.03 | 0.03 | 46 | 1006.8 |
| 20260510012026 | 26 | 142 | 3.2 | 11.3 | 0.00 | 0.03 | 0.03 | 45 | 1006.9 |
| 20260510011505 | 26 | 155 | 3.2 | 11.3 | 0.00 | 0.03 | 0.03 | 45 | 1007.0 |
| 20260510011026 | 26 | 149 | 3.2 | 9.7 | 0.00 | 0.03 | 0.03 | 45 | 1006.8 |
| 20260510010505 | 26 | 150 | 3.2 | 9.7 | 0.00 | 0.03 | 0.03 | 45 | 1006.7 |
| 20260510010005 | 26 | 149 | 3.2 | 12.9 | 0.00 | 0.03 | 0.03 | 44 | 1006.8 |
| 20260510005505 | 26 | 149 | 4.8 | 17.7 | 0.00 | 0.03 | 0.03 | 44 | 1006.9 |
| 20260510005005 | 26 | 152 | 4.8 | 17.7 | 0.00 | 0.03 | 0.03 | 44 | 1006.9 |
| 20260510004505 | 27 | 157 | 3.2 | 12.9 | 0.00 | 0.03 | 0.03 | 44 | 1007.0 |
| 20260510004005 | 27 | 157 | 4.8 | 19.3 | 0.00 | 0.03 | 0.03 | 44 | 1007.2 |
| 20260510003526 | 27 | 141 | 3.2 | 19.3 | 0.00 | 0.03 | 0.03 | 44 | 1007.2 |
| 20260510003005 | 27 | 120 | 6.4 | 17.7 | 0.00 | 0.03 | 0.03 | 44 | 1007.0 |
| 20260510002504 | 27 | 119 | 8.0 | 17.7 | 0.00 | 0.03 | 0.03 | 43 | 1006.8 |
| 20260510002005 | 28 | 123 | 6.4 | 19.3 | 0.00 | 0.03 | 0.03 | 44 | 1006.9 |
| 20260510001505 | 28 | 133 | 6.4 | 19.3 | 0.00 | 0.03 | 0.03 | 43 | 1006.9 |
| 20260510001004 | 28 | 153 | 8.0 | 19.3 | 0.00 | 0.03 | 0.03 | 42 | 1007.0 |
| 20260510000504 | 28 | 156 | 8.0 | 19.3 | 0.00 | 0.03 | 0.03 | 40 | 1007.1 |
| 20260510000005 | 29 | 149 | 6.4 | 17.7 | 0.00 | 0.03 | 0.03 | 39 | 1007.0 |
| 20260509235505 | 30 | 153 | 6.4 | 17.7 | 0.00 | 0.03 | 0.03 | 38 | 1006.9 |
| 20260509235005 | 30 | 153 | 8.0 | 27.4 | 0.00 | 0.03 | 0.03 | 36 | 1006.9 |
| 20260509234505 | 31 | 152 | 9.7 | 27.4 | 0.00 | 0.03 | 0.03 | 35 | 1007.0 |
| 20260509234005 | 31 | 138 | 9.7 | 22.5 | 0.00 | 0.03 | 0.03 | 33 | 1007.1 |
| 20260509233525 | 32 | 133 | 9.7 | 20.9 | 0.00 | 0.03 | 0.03 | 33 | 1007.2 |
| 20260509233004 | 32 | 155 | 9.7 | 24.1 | 0.00 | 0.03 | 0.03 | 34 | 1007.0 |
| 20260509232526 | 32 | 159 | 9.7 | 24.1 | 0.00 | 0.03 | 0.03 | 33 | 1007.0 |
| 20260509232004 | 32 | 156 | 11.3 | 25.7 | 0.00 | 0.03 | 0.03 | 34 | 1007.2 |
| 20260509231504 | 32 | 148 | 11.3 | 25.7 | 0.00 | 0.03 | 0.03 | 35 | 1007.2 |
| 20260509231005 | 32 | 147 | 9.7 | 19.3 | 0.00 | 0.03 | 0.03 | 35 | 1007.3 |
| 20260509230505 | 32 | 153 | 9.7 | 19.3 | 0.00 | 0.03 | 0.03 | 35 | 1007.2 |
| 20260509230005 | 32 | 134 | 9.7 | 19.3 | 0.00 | 0.03 | 0.03 | 35 | 1007.3 |
| 20260509225505 | 32 | 128 | 9.7 | 20.9 | 0.00 | 0.03 | 0.03 | 33 | 1007.3 |
| 20260509225026 | 32 | 136 | 8.0 | 20.9 | 0.00 | 0.18 | 0.03 | 33 | 1007.3 |
| 20260509224505 | 33 | 128 | 8.0 | 22.5 | 0.00 | 0.81 | 0.03 | 33 | 1007.4 |
| 20260509224025 | 33 | 116 | 9.7 | 22.5 | 0.00 | 0.81 | 0.03 | 33 | 1007.5 |
| 20260509223526 | 33 | 113 | 9.7 | 19.3 | 0.00 | 0.81 | 0.03 | 33 | 1007.5 |
| 20260509223005 | 33 | 118 | 8.0 | 19.3 | 0.00 | 0.81 | 0.03 | 33 | 1007.7 |
| 20260509222504 | 33 | 138 | 6.4 | 17.7 | 0.00 | 0.81 | 0.03 | 33 | 1007.8 |
| 20260509222005 | 33 | 144 | 8.0 | 17.7 | 0.00 | 0.81 | 0.03 | 33 | 1007.8 |
| 20260509221505 | 33 | 127 | 9.7 | 20.9 | 0.00 | 0.81 | 0.03 | 32 | 1007.8 |
| 20260509221004 | 33 | 114 | 6.4 | 20.9 | 0.00 | 0.81 | 0.03 | 32 | 1008.0 |
| 20260509220505 | 33 | 128 | 6.4 | 16.1 | 0.00 | 0.81 | 0.03 | 33 | 1007.9 |
| 20260509220004 | 33 | 141 | 6.4 | 12.9 | 0.00 | 0.81 | 0.03 | 33 | 1008.0 |
| 20260509215504 | 33 | 125 | 8.0 | 19.3 | 0.00 | 0.81 | 0.03 | 34 | 1008.0 |
| 20260509215004 | 33 | 103 | 11.3 | 19.3 | 0.00 | 0.81 | 0.03 | 34 | 1008.0 |
| 20260509214504 | 33 | 97 | 12.9 | 22.5 | 0.00 | 0.81 | 0.03 | 34 | 1008.0 |
| 20260509214004 | 33 | 102 | 11.3 | 22.5 | 0.00 | 0.81 | 0.03 | 35 | 1008.0 |
| 20260509213504 | 33 | 126 | 9.7 | 19.3 | 0.00 | 0.81 | 0.03 | 33 | 1008.0 |
| 20260509213026 | 33 | 147 | 6.4 | 20.9 | 0.00 | 0.81 | 0.03 | 35 | 1008.0 |
| 20260509212505 | 33 | 148 | 6.4 | 22.5 | 0.00 | 0.81 | 0.03 | 34 | 1008.1 |
| 20260509212005 | 33 | 146 | 6.4 | 22.5 | 0.00 | 0.81 | 0.03 | 33 | 1008.2 |
| 20260509211505 | 33 | 127 | 8.0 | 17.7 | 0.00 | 0.81 | 0.03 | 33 | 1008.3 |
| 20260509211004 | 33 | 132 | 8.0 | 17.7 | 0.00 | 0.81 | 0.03 | 34 | 1008.3 |
| 20260509210526 | 33 | 148 | 4.8 | 14.5 | 0.00 | 0.81 | 0.03 | 36 | 1008.3 |
| 20260509210026 | 33 | 110 | 8.0 | 22.5 | 0.00 | 0.81 | 0.03 | 36 | 1008.4 |
| 20260509205526 | 33 | 96 | 9.7 | 22.5 | 0.00 | 0.81 | 0.03 | 34 | 1008.4 |
| 20260509205005 | 33 | 99 | 8.0 | 16.1 | 0.00 | 0.81 | 0.03 | 33 | 1008.5 |
| 20260509204505 | 33 | 110 | 8.0 | 17.7 | 0.00 | 0.81 | 0.03 | 34 | 1008.5 |
| 20260509204005 | 33 | 94 | 11.3 | 22.5 | 0.00 | 0.81 | 0.03 | 33 | 1008.6 |
| 20260509203505 | 33 | 87 | 11.3 | 22.5 | 0.00 | 0.81 | 0.03 | 34 | 1008.6 |
| 20260509203005 | 33 | 101 | 8.0 | 22.5 | 0.00 | 0.81 | 0.03 | 34 | 1008.7 |
| 20260509202505 | 33 | 121 | 3.2 | 14.5 | 0.00 | 0.81 | 0.03 | 33 | 1008.7 |
| 20260509202005 | 33 | 121 | 4.8 | 16.1 | 0.00 | 0.81 | 0.03 | 31 | 1008.8 |
| 20260509201505 | 33 | 136 | 6.4 | 16.1 | 0.00 | 0.81 | 0.03 | 32 | 1008.9 |
| 20260509201005 | 33 | 177 | 3.2 | 11.3 | 0.00 | 0.81 | 0.03 | 35 | 1008.8 |
| 20260509200505 | 33 | 123 | 3.2 | 16.1 | 0.00 | 0.81 | 0.03 | 33 | 1008.9 |
| 20260509200005 | 33 | 85 | 3.2 | 16.1 | 0.00 | 0.81 | 0.03 | 31 | 1009.1 |
| 20260509195505 | 33 | 103 | 4.8 | 16.1 | 0.00 | 0.81 | 0.03 | 34 | 1009.2 |
| 20260509195005 | 33 | 101 | 6.4 | 16.1 | 0.00 | 0.81 | 0.03 | 34 | 1009.2 |
| 20260509194505 | 33 | 97 | 8.0 | 16.1 | 0.00 | 0.81 | 0.03 | 36 | 1009.2 |
| 20260509194005 | 33 | 99 | 8.0 | 22.5 | 0.00 | 0.81 | 0.03 | 34 | 1009.3 |
| 20260509193526 | 32 | 94 | 8.0 | 22.5 | 0.00 | 0.81 | 0.03 | 33 | 1009.4 |
| 20260509193005 | 32 | 90 | 3.2 | 14.5 | 0.00 | 0.81 | 0.03 | 35 | 1009.4 |
| 20260509192505 | 32 | 76 | 3.2 | 12.9 | 0.00 | 0.81 | 0.03 | 37 | 1009.4 |
| 20260509192026 | 32 | 71 | 4.8 | 17.7 | 0.00 | 0.81 | 0.03 | 34 | 1009.4 |
| 20260509191504 | 32 | 82 | 9.7 | 20.9 | 0.00 | 0.81 | 0.03 | 37 | 1009.6 |
| 20260509191004 | 32 | 84 | 11.3 | 20.9 | 0.00 | 0.81 | 0.03 | 36 | 1009.6 |
| 20260509190504 | 32 | 84 | 9.7 | 17.7 | 0.00 | 0.81 | 0.03 | 36 | 1009.7 |
| 20260509190004 | 31 | 97 | 9.7 | 17.7 | 0.00 | 0.81 | 0.03 | 36 | 1009.7 |
| 20260509185525 | 31 | 136 | 8.0 | 17.7 | 0.00 | 0.81 | 0.03 | 35 | 1009.8 |
| 20260509185025 | 31 | 145 | 6.4 | 14.5 | 0.00 | 0.81 | 0.03 | 34 | 1009.9 |
| 20260509184504 | 31 | 119 | 1.6 | 11.3 | 0.00 | 0.81 | 0.03 | 37 | 1009.9 |
| 20260509184004 | 31 | 124 | 0.0 | 4.8 | 0.00 | 0.81 | 0.03 | 35 | 1010.0 |
| 20260509183504 | 31 | 161 | 1.6 | 9.7 | 0.00 | 0.81 | 0.03 | 40 | 1010.0 |
| 20260509183004 | 31 | 175 | 3.2 | 14.5 | 0.00 | 0.81 | 0.03 | 40 | 1010.1 |
| 20260509182504 | 30 | 169 | 4.8 | 14.5 | 0.00 | 0.81 | 0.03 | 36 | 1010.1 |
| 20260509182004 | 30 | 166 | 6.4 | 14.5 | 0.00 | 0.81 | 0.03 | 37 | 1010.2 |
| 20260509181504 | 30 | 177 | 6.4 | 17.7 | 0.00 | 0.81 | 0.03 | 39 | 1010.2 |
| 20260509181025 | 30 | 188 | 4.8 | 17.7 | 0.00 | 0.81 | 0.03 | 38 | 1010.3 |
| 20260509180504 | 30 | 207 | 4.8 | 16.1 | 0.00 | 0.81 | 0.03 | 40 | 1010.4 |
| 20260509180025 | 30 | 191 | 4.8 | 16.1 | 0.00 | 0.81 | 0.03 | 42 | 1010.4 |
| 20260509175504 | 30 | 164 | 6.4 | 19.3 | 0.00 | 0.81 | 0.03 | 44 | 1010.6 |
| 20260509175004 | 30 | 166 | 8.0 | 19.3 | 0.00 | 0.81 | 0.03 | 42 | 1010.7 |
| 20260509174504 | 30 | 169 | 4.8 | 16.1 | 0.00 | 0.81 | 0.03 | 44 | 1010.7 |
| 20260509174004 | 29 | 228 | 3.2 | 14.5 | 0.00 | 0.81 | 0.03 | 42 | 1010.8 |
| 20260509173504 | 29 | 245 | 4.8 | 14.5 | 0.00 | 0.81 | 0.03 | 41 | 1010.8 |
| 20260509173004 | 29 | 237 | 4.8 | 12.9 | 0.00 | 0.81 | 0.03 | 40 | 1010.9 |
| 20260509172504 | 28 | 173 | 1.6 | 9.7 | 0.00 | 0.81 | 0.03 | 44 | 1010.9 |
| 20260509172004 | 28 | 103 | 1.6 | 16.1 | 0.00 | 0.81 | 0.03 | 45 | 1011.1 |
| 20260509171505 | 28 | 97 | 4.8 | 16.1 | 0.00 | 0.81 | 0.03 | 47 | 1011.0 |
| 20260509171004 | 28 | 125 | 4.8 | 12.9 | 0.00 | 0.81 | 0.03 | 52 | 1011.1 |
| 20260509170504 | 28 | 176 | 4.8 | 14.5 | 0.00 | 0.81 | 0.03 | 52 | 1011.1 |
| 20260509170004 | 27 | 163 | 4.8 | 14.5 | 0.00 | 0.81 | 0.03 | 55 | 1011.2 |
| 20260509165526 | 27 | 137 | 4.8 | 12.9 | 0.00 | 0.81 | 0.03 | 58 | 1011.3 |
| 20260509165004 | 27 | 120 | 6.4 | 14.5 | 0.00 | 0.81 | 0.03 | 55 | 1011.2 |
| 20260509164505 | 27 | 116 | 4.8 | 14.5 | 0.00 | 0.81 | 0.03 | 55 | 1011.2 |
| 20260509164004 | 26 | 95 | 4.8 | 14.5 | 0.00 | 0.81 | 0.03 | 59 | 1011.1 |
| 20260509163504 | 26 | 97 | 8.0 | 16.1 | 0.00 | 0.81 | 0.03 | 56 | 1011.4 |
| 20260509163025 | 26 | 119 | 8.0 | 16.1 | 0.00 | 0.81 | 0.03 | 57 | 1011.4 |
| 20260509162505 | 25 | 141 | 4.8 | 14.5 | 0.00 | 0.81 | 0.03 | 60 | 1011.5 |
| 20260509162026 | 25 | 127 | 3.2 | 14.5 | 0.00 | 0.81 | 0.03 | 62 | 1011.4 |
| 20260509161505 | 25 | 118 | 3.2 | 12.9 | 0.00 | 0.81 | 0.03 | 66 | 1011.5 |
| 20260509161005 | 24 | 138 | 3.2 | 14.5 | 0.00 | 0.81 | 0.03 | 65 | 1011.6 |
| 20260509160505 | 23 | 128 | 4.8 | 14.5 | 0.00 | 0.81 | 0.03 | 68 | 1011.6 |
| 20260509160026 | 23 | 117 | 4.8 | 14.5 | 0.00 | 0.81 | 0.03 | 69 | 1011.5 |
| 20260509155504 | 23 | 124 | 3.2 | 14.5 | 0.00 | 0.81 | 0.03 | 70 | 1011.4 |
| 20260509155005 | 23 | 125 | 3.2 | 14.5 | 0.00 | 0.81 | 0.03 | 69 | 1011.3 |
| 20260509154505 | 22 | 129 | 1.6 | 11.3 | 0.00 | 0.81 | 0.03 | 72 | 1011.3 |
| 20260509154005 | 22 | 163 | 1.6 | 8.0 | 0.00 | 0.81 | 0.03 | 71 | 1011.3 |
| 20260509153504 | 22 | 171 | 1.6 | 8.0 | 0.00 | 0.81 | 0.03 | 73 | 1011.5 |
| 20260509153004 | 22 | 163 | 1.6 | 6.4 | 0.00 | 0.81 | 0.03 | 73 | 1011.2 |
| 20260509152504 | 22 | 126 | 1.6 | 6.4 | 0.00 | 0.81 | 0.03 | 74 | 1011.3 |
| 20260509152004 | 22 | 112 | 3.2 | 6.4 | 0.00 | 0.81 | 0.03 | 76 | 1011.1 |
| 20260509151504 | 22 | 111 | 1.6 | 4.8 | 0.00 | 0.81 | 0.03 | 76 | 1011.2 |
| 20260509151004 | 21 | 125 | 0.0 | 4.8 | 0.00 | 0.81 | 0.03 | 78 | 1011.3 |
| 20260509150504 | 21 | 128 | 0.0 | 3.2 | 0.00 | 0.81 | 0.03 | 82 | 1011.3 |
| 20260509150004 | 21 | 112 | 1.6 | 6.4 | 0.00 | 0.81 | 0.03 | 85 | 1011.2 |
| 20260509145504 | 20 | 105 | 3.2 | 11.3 | 0.00 | 0.81 | 0.03 | 89 | 1011.3 |
| 20260509145004 | 20 | 107 | 4.8 | 11.3 | 0.00 | 0.81 | 0.03 | 90 | 1011.1 |
| 20260509144504 | 20 | 109 | 3.2 | 11.3 | 0.00 | 0.81 | 0.03 | 91 | 1011.0 |
| 20260509144004 | 19 | 100 | 3.2 | 9.7 | 0.00 | 0.81 | 0.03 | 92 | 1011.0 |
| 20260509143504 | 18 | 72 | 1.6 | 6.4 | 0.00 | 0.81 | 0.03 | 93 | 1011.1 |
| 20260509143004 | 18 | 47 | 0.0 | 4.8 | 0.00 | 0.81 | 0.03 | 93 | 1011.2 |
| 20260509142504 | 18 | 0 | 0.0 | 0.0 | 0.00 | 0.81 | 0.03 | 93 | 1011.2 |
| 20260509142004 | 18 | 0 | 0.0 | 0.0 | 0.00 | 0.81 | 0.03 | 93 | 1011.3 |
| 20260509141504 | 17 | 0 | 0.0 | 0.0 | 0.00 | 0.81 | 0.03 | 94 | 1011.4 |
| 20260509141004 | 17 | 0 | 0.0 | 0.0 | 0.00 | 0.81 | 0.03 | 94 | 1011.4 |
| 20260509140525 | 17 | 0 | 0.0 | 0.0 | 0.00 | 0.81 | 0.03 | 93 | 1011.3 |
| 20260509140005 | 17 | 0 | 0.0 | 0.0 | 0.00 | 0.81 | 0.03 | 94 | 1011.3 |
| 20260509135504 | 16 | 0 | 0.0 | 0.0 | 0.00 | 0.81 | 0.03 | 94 | 1011.2 |
| 20260509135004 | 16 | 0 | 0.0 | 0.0 | 0.00 | 0.81 | 0.03 | 94 | 1011.2 |
| 20260509134504 | 16 | 0 | 0.0 | 0.0 | 0.00 | 0.81 | 0.03 | 94 | 1011.1 |
| 20260509134025 | 15 | 0 | 0.0 | 0.0 | 0.00 | 0.81 | 0.03 | 93 | 1011.1 |
| 20260509133525 | 15 | 0 | 0.0 | 0.0 | 0.00 | 0.81 | 0.03 | 93 | 1011.0 |
| 20260509133004 | 15 | 0 | 0.0 | 0.0 | 0.00 | 0.81 | 0.03 | 94 | 1010.9 |
| 20260509132504 | 15 | 0 | 0.0 | 0.0 | 0.00 | 0.81 | 0.03 | 94 | 1011.0 |
| 20260509132004 | 14 | 0 | 0.0 | 0.0 | 0.00 | 0.81 | 0.03 | 93 | 1011.0 |
| 20260509131525 | 13 | 0 | 0.0 | 0.0 | 0.00 | 0.81 | 0.03 | 93 | 1010.8 |
| 20260509131025 | 13 | 0 | 0.0 | 0.0 | 0.00 | 0.81 | 0.03 | 92 | 1010.8 |
| 20260509130525 | 13 | 0 | 0.0 | 0.0 | 0.00 | 0.81 | 0.03 | 92 | 1010.7 |
| 20260509130004 | 13 | 0 | 0.0 | 0.0 | 0.00 | 0.81 | 0.03 | 92 | 1010.6 |
| 20260509125504 | 13 | 0 | 0.0 | 0.0 | 0.00 | 0.81 | 0.03 | 92 | 1010.6 |
| 20260509125004 | 13 | 0 | 0.0 | 0.0 | 0.00 | 0.81 | 0.03 | 92 | 1010.6 |
| 20260509124504 | 13 | 158 | 0.0 | 3.2 | 0.00 | 0.81 | 0.03 | 92 | 1010.5 |
| 20260509124004 | 13 | 157 | 0.0 | 3.2 | 0.00 | 0.81 | 0.03 | 92 | 1010.4 |
| 20260509123504 | 13 | 153 | 0.0 | 3.2 | 0.00 | 0.81 | 0.03 | 92 | 1010.4 |
| 20260509123004 | 13 | 0 | 0.0 | 0.0 | 0.00 | 0.81 | 0.03 | 91 | 1010.4 |
| 20260509122504 | 13 | 0 | 0.0 | 0.0 | 0.00 | 0.81 | 0.03 | 91 | 1010.2 |
| 20260509122025 | 12 | 0 | 0.0 | 0.0 | 0.00 | 0.81 | 0.03 | 91 | 1010.2 |
| 20260509121504 | 12 | 0 | 0.0 | 0.0 | 0.00 | 0.81 | 0.03 | 91 | 1010.2 |
| 20260509121004 | 12 | 0 | 0.0 | 0.0 | 0.00 | 0.81 | 0.03 | 91 | 1010.2 |
| 20260509120504 | 12 | 0 | 0.0 | 0.0 | 0.00 | 0.81 | 0.03 | 91 | 1010.1 |
| 20260509120004 | 12 | 0 | 0.0 | 0.0 | 0.00 | 0.81 | 0.03 | 91 | 1010.1 |
| 20260509115504 | 12 | 0 | 0.0 | 0.0 | 0.00 | 0.81 | 0.03 | 90 | 1010.0 |
| 20260509115025 | 12 | 0 | 0.0 | 0.0 | 0.00 | 0.81 | 0.03 | 90 | 1010.0 |
| 20260509114504 | 12 | 0 | 0.0 | 0.0 | 0.00 | 0.81 | 0.03 | 90 | 1010.0 |
| 20260509114004 | 12 | 0 | 0.0 | 0.0 | 0.00 | 0.81 | 0.03 | 90 | 1010.0 |
| 20260509113504 | 12 | 0 | 0.0 | 0.0 | 0.00 | 0.81 | 0.03 | 90 | 1009.9 |
| 20260509113004 | 12 | 0 | 0.0 | 0.0 | 0.00 | 0.81 | 0.03 | 90 | 1009.8 |
| 20260509112504 | 12 | 0 | 0.0 | 0.0 | 0.00 | 0.81 | 0.03 | 90 | 1009.7 |
| 20260509112005 | 12 | 0 | 0.0 | 0.0 | 0.00 | 0.81 | 0.03 | 90 | 1009.7 |
| 20260509111505 | 12 | 0 | 0.0 | 0.0 | 0.00 | 0.81 | 0.03 | 90 | 1009.6 |
| 20260509111004 | 12 | 0 | 0.0 | 0.0 | 0.00 | 0.81 | 0.03 | 89 | 1009.5 |
| 20260509110504 | 12 | 0 | 0.0 | 0.0 | 0.00 | 0.81 | 0.03 | 89 | 1009.5 |
| 20260509110004 | 13 | 0 | 0.0 | 0.0 | 0.00 | 0.81 | 0.03 | 90 | 1009.5 |
| 20260509105503 | 13 | 0 | 0.0 | 0.0 | 0.00 | 0.81 | 0.03 | 90 | 1009.6 |
| 20260509105025 | 13 | 0 | 0.0 | 0.0 | 0.00 | 0.81 | 0.03 | 89 | 1009.6 |
| 20260509104503 | 13 | 0 | 0.0 | 0.0 | 0.00 | 0.81 | 0.03 | 89 | 1009.6 |
| 20260509104004 | 13 | 0 | 0.0 | 0.0 | 0.00 | 0.81 | 0.03 | 89 | 1009.6 |
| 20260509103503 | 13 | 0 | 0.0 | 0.0 | 0.00 | 0.81 | 0.03 | 90 | 1009.6 |
| 20260509103025 | 13 | 0 | 0.0 | 0.0 | 0.00 | 0.81 | 0.03 | 90 | 1009.7 |
| 20260509102504 | 13 | 0 | 0.0 | 0.0 | 0.00 | 0.81 | 0.03 | 90 | 1009.7 |
| 20260509102003 | 13 | 0 | 0.0 | 0.0 | 0.00 | 0.81 | 0.03 | 90 | 1009.7 |
| 20260509101504 | 13 | 0 | 0.0 | 0.0 | 0.00 | 0.81 | 0.03 | 90 | 1009.8 |
| 20260509101004 | 13 | 0 | 0.0 | 0.0 | 0.00 | 0.81 | 0.03 | 90 | 1009.9 |
| 20260509100525 | 13 | 0 | 0.0 | 0.0 | 0.00 | 0.81 | 0.03 | 90 | 1010.0 |
| 20260509100005 | 13 | 0 | 0.0 | 0.0 | 0.00 | 0.81 | 0.03 | 90 | 1010.1 |
| 20260509095504 | 13 | 0 | 0.0 | 0.0 | 0.00 | 0.81 | 0.03 | 90 | 1010.0 |
| 20260509095025 | 13 | 0 | 0.0 | 0.0 | 0.00 | 0.81 | 0.03 | 90 | 1010.2 |
| 20260509094504 | 13 | 0 | 0.0 | 0.0 | 0.00 | 0.81 | 0.03 | 89 | 1010.2 |
| 20260509094025 | 13 | 0 | 0.0 | 0.0 | 0.00 | 0.81 | 0.03 | 89 | 1010.3 |
| 20260509093504 | 14 | 0 | 0.0 | 0.0 | 0.00 | 0.81 | 0.03 | 89 | 1010.3 |
| 20260509093004 | 14 | 0 | 0.0 | 0.0 | 0.00 | 0.81 | 0.03 | 89 | 1010.3 |
| 20260509092525 | 14 | 0 | 0.0 | 0.0 | 0.00 | 0.81 | 0.03 | 89 | 1010.2 |
| 20260509092004 | 14 | 0 | 0.0 | 0.0 | 0.00 | 0.81 | 0.03 | 89 | 1010.2 |
| 20260509091504 | 14 | 0 | 0.0 | 0.0 | 0.00 | 0.81 | 0.03 | 89 | 1010.2 |
| 20260509091004 | 14 | 0 | 0.0 | 1.6 | 0.00 | 0.81 | 0.03 | 89 | 1010.1 |
| 20260509090504 | 14 | 0 | 0.0 | 1.6 | 0.00 | 0.81 | 0.03 | 89 | 1010.2 |
| 20260509090004 | 14 | 0 | 0.0 | 0.0 | 0.00 | 0.81 | 0.03 | 89 | 1010.3 |
| 20260509085504 | 14 | 0 | 0.0 | 0.0 | 0.00 | 0.81 | 0.03 | 88 | 1010.4 |
| 20260509085026 | 14 | 0 | 0.0 | 0.0 | 0.03 | 0.81 | 0.03 | 88 | 1010.4 |
| 20260509084525 | 14 | 0 | 0.0 | 0.0 | 0.03 | 0.81 | 0.03 | 88 | 1010.2 |
| 20260509084004 | 14 | 0 | 0.0 | 0.0 | 0.03 | 0.81 | 0.03 | 88 | 1010.1 |
| 20260509083504 | 14 | 0 | 0.0 | 0.0 | 0.03 | 0.81 | 0.03 | 88 | 1010.1 |
| 20260509083004 | 14 | 0 | 0.0 | 0.0 | 0.03 | 0.81 | 0.03 | 88 | 1010.0 |
| 20260509082504 | 14 | 0 | 0.0 | 0.0 | 0.03 | 0.81 | 0.03 | 88 | 1010.0 |
| 20260509082004 | 14 | 0 | 0.0 | 0.0 | 0.03 | 0.81 | 0.03 | 88 | 1010.0 |
| 20260509081504 | 14 | 0 | 0.0 | 0.0 | 0.03 | 0.81 | 0.03 | 88 | 1010.1 |
| 20260509081025 | 15 | 0 | 0.0 | 0.0 | 0.03 | 0.81 | 0.03 | 88 | 1010.0 |
| 20260509080503 | 15 | 0 | 0.0 | 0.0 | 0.03 | 0.81 | 0.03 | 88 | 1010.1 |
| 20260509080004 | 15 | 0 | 0.0 | 0.0 | 0.03 | 0.81 | 0.03 | 88 | 1010.3 |
| 20260509075503 | 15 | 0 | 0.0 | 0.0 | 0.03 | 0.81 | 0.03 | 88 | 1010.4 |
| 20260509075004 | 15 | 0 | 0.0 | 0.0 | 0.00 | 0.79 | 0.00 | 88 | 1010.5 |
| 20260509074503 | 15 | 0 | 0.0 | 0.0 | 0.00 | 0.79 | 0.00 | 88 | 1010.6 |
| 20260509074004 | 15 | 0 | 0.0 | 0.0 | 0.00 | 0.79 | 0.00 | 88 | 1010.6 |
| 20260509073504 | 15 | 0 | 0.0 | 0.0 | 0.00 | 0.79 | 0.00 | 88 | 1010.7 |
| 20260509073004 | 15 | 0 | 0.0 | 0.0 | 0.00 | 0.79 | 0.00 | 88 | 1010.9 |
| 20260509072504 | 15 | 103 | 0.0 | 3.2 | 0.00 | 0.79 | 0.00 | 88 | 1010.7 |
| 20260509072004 | 15 | 103 | 0.0 | 3.2 | 0.00 | 0.79 | 0.00 | 88 | 1010.7 |
| 20260509071504 | 15 | 113 | 0.0 | 3.2 | 0.00 | 0.79 | 0.00 | 87 | 1010.7 |
| 20260509071003 | 15 | 113 | 0.0 | 3.2 | 0.00 | 0.79 | 0.00 | 88 | 1010.8 |
| 20260509070504 | 15 | 0 | 0.0 | 0.0 | 0.00 | 0.79 | 0.00 | 88 | 1010.8 |
| 20260509070004 | 15 | 0 | 0.0 | 0.0 | 0.00 | 0.79 | 0.00 | 87 | 1010.8 |
| 20260509065504 | 15 | 116 | 0.0 | 3.2 | 0.00 | 0.79 | 0.00 | 87 | 1010.8 |
| 20260509065004 | 15 | 115 | 0.0 | 3.2 | 0.00 | 0.79 | 0.00 | 87 | 1010.7 |
| 20260509064504 | 15 | 111 | 0.0 | 3.2 | 0.00 | 0.79 | 0.00 | 87 | 1010.6 |
| 20260509064004 | 16 | 111 | 0.0 | 3.2 | 0.00 | 0.79 | 0.00 | 87 | 1010.6 |
| 20260509063504 | 16 | 0 | 0.0 | 0.0 | 0.00 | 0.79 | 0.00 | 87 | 1010.5 |
| 20260509063025 | 16 | 0 | 0.0 | 0.0 | 0.00 | 0.79 | 0.00 | 87 | 1010.7 |
| 20260509062504 | 16 | 0 | 0.0 | 0.0 | 0.00 | 0.79 | 0.00 | 87 | 1010.8 |
| 20260509062004 | 16 | 0 | 0.0 | 0.0 | 0.00 | 0.79 | 0.00 | 87 | 1010.9 |
| 20260509061504 | 16 | 0 | 0.0 | 0.0 | 0.00 | 0.79 | 0.00 | 87 | 1011.0 |
| 20260509061004 | 16 | 109 | 0.0 | 1.6 | 0.00 | 0.79 | 0.00 | 87 | 1011.0 |
| 20260509060504 | 16 | 109 | 0.0 | 1.6 | 0.00 | 0.79 | 0.00 | 87 | 1011.0 |
| 20260509060004 | 16 | 0 | 0.0 | 0.0 | 0.00 | 0.79 | 0.00 | 87 | 1011.0 |
| 20260509055504 | 16 | 108 | 0.0 | 3.2 | 0.00 | 0.79 | 0.00 | 87 | 1010.8 |
| 20260509055004 | 16 | 109 | 0.0 | 3.2 | 0.00 | 0.79 | 0.00 | 87 | 1010.7 |
| 20260509054504 | 16 | 110 | 1.6 | 4.8 | 0.00 | 0.79 | 0.00 | 87 | 1010.7 |
| 20260509054025 | 16 | 108 | 1.6 | 6.4 | 0.00 | 0.79 | 0.00 | 87 | 1010.7 |
| 20260509053525 | 16 | 106 | 3.2 | 6.4 | 0.00 | 0.79 | 0.00 | 87 | 1010.7 |
| 20260509053004 | 16 | 102 | 1.6 | 9.7 | 0.00 | 0.79 | 0.00 | 87 | 1010.6 |
| 20260509052504 | 16 | 102 | 1.6 | 9.7 | 0.00 | 0.79 | 0.00 | 87 | 1010.7 |
| 20260509052004 | 16 | 101 | 1.6 | 6.4 | 0.00 | 0.79 | 0.00 | 87 | 1010.8 |
| 20260509051525 | 16 | 99 | 0.0 | 11.3 | 0.00 | 0.79 | 0.00 | 87 | 1010.8 |
| 20260509051004 | 17 | 96 | 1.6 | 11.3 | 0.00 | 0.79 | 0.00 | 87 | 1010.8 |
| 20260509050504 | 17 | 98 | 4.8 | 12.9 | 0.00 | 0.79 | 0.00 | 87 | 1010.7 |
| 20260509050004 | 17 | 100 | 6.4 | 12.9 | 0.00 | 0.79 | 0.00 | 87 | 1010.8 |
| 20260509045504 | 17 | 102 | 4.8 | 12.9 | 0.00 | 0.79 | 0.79 | 87 | 1010.8 |